Weather Data

Pearl Creek Farm: 8878 N Farm Road 75, Walnut Grove MO 65770

<== Previous Day (Friday 24 Jan 2014) | Next Day (Sunday 26 Jan 2014) ==>

Summary Precipitation Data For Saturday 25 January 2014

ElementValueUnits
Precipitation0"
Notes(none)
SourcePearl Creek Farm

Summary Temperature Data For Saturday 25 January 2014

ElementValueUnits
High Temperature51 oF
Low Temperature26 oF
Average Temperature39 oF
High Humidity81 %
Low Humidity40 %
Average Humidity59 %
SourcePearl Creek Farm

Detail Temperature Data For Saturday 25 January 2014

Date / TimeTemp (F)RH (%)Dew Pt (F)Report Date / TimeSource
2014-01-25 00:00:00 36 40 13.8 2014-02-09 14:43:36 Pearl Creek Farm
2014-01-25 00:30:00 36 40 14.1 2014-02-09 14:43:36 Pearl Creek Farm
2014-01-25 01:00:00 37 40 14.7 2014-02-09 14:43:36 Pearl Creek Farm
2014-01-25 01:30:00 37 40 14.7 2014-02-09 14:43:36 Pearl Creek Farm
2014-01-25 02:00:00 38 40 15.9 2014-02-09 14:43:36 Pearl Creek Farm
2014-01-25 02:30:00 38 40 15.9 2014-02-09 14:43:36 Pearl Creek Farm
2014-01-25 03:00:00 38 41 16.5 2014-02-09 14:43:36 Pearl Creek Farm
2014-01-25 03:30:00 38 43 17.5 2014-02-09 14:43:36 Pearl Creek Farm
2014-01-25 04:00:00 38 45 18.6 2014-02-09 14:43:36 Pearl Creek Farm
2014-01-25 04:30:00 38 47 19.6 2014-02-09 14:43:36 Pearl Creek Farm
2014-01-25 05:00:00 39 49 21.3 2014-02-09 14:43:36 Pearl Creek Farm
2014-01-25 05:30:00 38 51 21.5 2014-02-09 14:43:36 Pearl Creek Farm
2014-01-25 06:00:00 37 54 21.7 2014-02-09 14:43:36 Pearl Creek Farm
2014-01-25 06:30:00 37 56 22.8 2014-02-09 14:43:36 Pearl Creek Farm
2014-01-25 07:00:00 37 59 24.0 2014-02-09 14:43:36 Pearl Creek Farm
2014-01-25 07:30:00 36 62 24.1 2014-02-09 14:43:36 Pearl Creek Farm
2014-01-25 08:00:00 36 65 25.2 2014-02-09 14:43:36 Pearl Creek Farm
2014-01-25 08:30:00 37 64 26.0 2014-02-09 14:43:36 Pearl Creek Farm
2014-01-25 09:00:00 40 67 30.0 2014-02-09 14:43:36 Pearl Creek Farm
2014-01-25 09:30:00 43 64 31.7 2014-02-09 14:43:36 Pearl Creek Farm
2014-01-25 10:00:00 45 64 33.4 2014-02-09 14:43:36 Pearl Creek Farm
2014-01-25 10:30:00 47 60 33.9 2014-02-09 14:43:36 Pearl Creek Farm
2014-01-25 11:00:00 49 57 34.5 2014-02-09 14:43:36 Pearl Creek Farm
2014-01-25 11:30:00 50 57 35.2 2014-02-09 14:43:36 Pearl Creek Farm
2014-01-25 12:00:00 51 56 35.9 2014-02-09 14:43:36 Pearl Creek Farm
2014-01-25 12:30:00 51 56 35.7 2014-02-09 14:43:36 Pearl Creek Farm
2014-01-25 13:00:00 51 56 35.7 2014-02-09 14:43:36 Pearl Creek Farm
2014-01-25 13:30:00 51 56 35.7 2014-02-09 14:43:36 Pearl Creek Farm
2014-01-25 14:00:00 51 55 35.2 2014-02-09 14:43:36 Pearl Creek Farm
2014-01-25 14:30:00 49 56 34.0 2014-02-09 14:43:36 Pearl Creek Farm
2014-01-25 15:00:00 49 55 33.6 2014-02-09 14:43:36 Pearl Creek Farm
2014-01-25 15:30:00 48 54 32.2 2014-02-09 14:43:36 Pearl Creek Farm
2014-01-25 16:00:00 48 55 32.4 2014-02-09 14:43:36 Pearl Creek Farm
2014-01-25 16:30:00 47 55 31.5 2014-02-09 14:43:36 Pearl Creek Farm
2014-01-25 17:00:00 45 57 30.5 2014-02-09 14:43:36 Pearl Creek Farm
2014-01-25 17:30:00 43 58 29.1 2014-02-09 14:43:36 Pearl Creek Farm
2014-01-25 18:00:00 39 61 26.7 2014-02-09 14:43:36 Pearl Creek Farm
2014-01-25 18:30:00 34 66 23.9 2014-02-09 14:43:36 Pearl Creek Farm
2014-01-25 19:00:00 31 72 22.9 2014-02-09 14:43:36 Pearl Creek Farm
2014-01-25 19:30:00 29 74 21.6 2014-02-09 14:43:36 Pearl Creek Farm
2014-01-25 20:00:00 28 76 21.4 2014-02-09 14:43:36 Pearl Creek Farm
2014-01-25 20:30:00 28 76 21.4 2014-02-09 14:43:36 Pearl Creek Farm
2014-01-25 21:00:00 27 78 21.1 2014-02-09 14:43:36 Pearl Creek Farm
2014-01-25 21:30:00 27 78 21.1 2014-02-09 14:43:36 Pearl Creek Farm
2014-01-25 22:00:00 26 80 20.6 2014-02-09 14:43:36 Pearl Creek Farm
2014-01-25 22:30:00 27 80 21.5 2014-02-09 14:43:36 Pearl Creek Farm
2014-01-25 23:00:00 26 80 20.7 2014-02-09 14:43:36 Pearl Creek Farm
2014-01-25 23:30:00 26 81 21.0 2014-02-09 14:43:36 Pearl Creek Farm

A total of 48 rows are displayed.